Time;durP1;ratioP1;P1;durP2;ratioP2;P2;SDS_P1;SDS_P2;PMS_P1;PMS_P2;Temp;Humidity;BMP_temperature;BMP_pressure;BME280_temperature;BME280_humidity;BME280_pressure;Samples;Min_cycle;Max_cycle;Signal;HPM_P1;HPM_P2
2023/09/04 00:01:39;;;;;;;0.00;0.00;;;;;;;21.69;44.53;101898.75;7372620;19;20019;-59
2023/09/04 00:04:06;;;;;;;0.00;0.00;;;;;;;21.65;44.78;101891.88;7374364;19;20018;-61
2023/09/04 00:06:32;;;;;;;0.10;0.10;;;;;;;21.61;44.67;101892.97;7372361;19;20010;-59
2023/09/04 00:08:59;;;;;;;0.00;0.00;;;;;;;21.56;44.89;101892.34;7363694;19;20007;-59
2023/09/04 00:11:26;;;;;;;;;;;;;;;21.49;43.43;101892.66;7359001;19;20035;-59
2023/09/04 00:13:51;;;;;;;0.10;0.10;;;;;;;21.45;44.74;101890.22;7366472;19;19942;-59
2023/09/04 00:16:17;;;;;;;0.00;0.00;;;;;;;21.39;44.71;101886.06;7365082;19;20022;-59
2023/09/04 00:18:42;;;;;;;0.00;0.00;;;;;;;21.35;44.76;101895.13;7363451;19;20010;-60
2023/09/04 00:21:08;;;;;;;0.00;0.00;;;;;;;21.29;44.60;101887.41;7359776;19;20002;-59
2023/09/04 00:23:33;;;;;;;0.00;0.00;;;;;;;21.24;45.27;101889.44;7358472;19;20580;-58
2023/09/04 00:25:58;;;;;;;0.10;0.10;;;;;;;21.19;45.32;101888.81;7363873;19;20011;-60
2023/09/04 00:28:24;;;;;;;0.00;0.00;;;;;;;21.14;45.42;101890.81;7360746;19;20043;-58
2023/09/04 00:30:49;;;;;;;0.00;0.00;;;;;;;21.09;45.40;101888.38;7366164;19;20015;-59
2023/09/04 00:33:15;;;;;;;0.00;0.00;;;;;;;21.05;45.11;101888.59;7371260;19;20037;-60
2023/09/04 00:35:40;;;;;;;0.08;0.08;;;;;;;21.01;45.11;101889.66;7361789;19;20030;-58
2023/09/04 00:38:06;;;;;;;0.00;0.00;;;;;;;20.95;45.46;101889.03;7365421;19;20106;-59
2023/09/04 00:40:31;;;;;;;0.00;0.00;;;;;;;20.88;45.17;101892.03;7368373;19;20009;-60
2023/09/04 00:42:56;;;;;;;0.00;0.00;;;;;;;20.84;45.28;101896.63;7359452;19;20010;-59
2023/09/04 00:45:22;;;;;;;0.00;0.00;;;;;;;20.80;45.57;101897.72;7361831;19;20015;-61
2023/09/04 00:47:47;;;;;;;0.00;0.00;;;;;;;20.77;45.40;101905.81;7364487;19;20365;-60
2023/09/04 00:50:18;;;;;;;0.00;0.00;;;;;;;20.73;45.30;101901.56;7363353;19;20034;-58
2023/09/04 00:52:44;;;;;;;0.00;0.00;;;;;;;20.68;45.45;101898.25;7362947;19;20031;-58
2023/09/04 00:55:10;;;;;;;0.00;0.00;;;;;;;20.62;46.00;101885.28;7362209;19;20022;-59
2023/09/04 00:57:38;;;;;;;0.00;0.00;;;;;;;20.59;45.88;101883.63;7363744;19;20437;-57
2023/09/04 01:00:13;;;;;;;0.00;0.00;;;;;;;20.53;45.77;101872.41;7367471;19;20094;-60
2023/09/04 01:02:40;;;;;;;0.00;0.00;;;;;;;20.50;45.81;101877.88;7366639;19;20480;-60
2023/09/04 01:05:05;;;;;;;0.00;0.00;;;;;;;20.40;45.87;101867.66;7364645;19;20034;-60
2023/09/04 01:07:31;;;;;;;0.00;0.00;;;;;;;20.28;46.30;101847.00;7361995;19;20014;-61
2023/09/04 01:09:57;;;;;;;0.00;0.00;;;;;;;20.37;46.12;101869.56;7360550;19;20015;-59
2023/09/04 01:12:54;;;;;;;0.00;0.00;;;;;;;20.32;45.79;101864.47;7363881;19;20018;-59
2023/09/04 01:15:20;;;;;;;0.00;0.00;;;;;;;20.27;46.11;101863.81;7361145;19;20007;-59
2023/09/04 01:17:46;;;;;;;0.10;0.10;;;;;;;20.24;46.69;101857.81;7363521;19;20021;-61
2023/09/04 01:20:24;;;;;;;0.00;0.00;;;;;;;20.11;45.60;101841.56;7356921;19;20017;-58
2023/09/04 01:22:50;;;;;;;0.00;0.00;;;;;;;20.15;46.64;101861.72;7360280;19;20034;-56
2023/09/04 01:25:15;;;;;;;0.00;0.00;;;;;;;20.12;46.97;101851.22;7362330;19;20002;-58
2023/09/04 01:27:48;;;;;;;0.00;0.00;;;;;;;20.08;47.03;101850.53;7358931;19;20018;-58
2023/09/04 01:30:28;;;;;;;0.10;0.10;;;;;;;20.05;45.94;101837.38;7361742;19;20017;-59
2023/09/04 01:33:03;;;;;;;0.00;0.00;;;;;;;20.02;46.73;101834.00;7361794;19;20533;-59
2023/09/04 01:35:30;;;;;;;0.00;0.00;;;;;;;19.96;47.23;101825.41;7360595;19;20018;-60
2023/09/04 01:37:56;;;;;;;0.00;0.00;;;;;;;19.93;47.68;101822.91;7359518;19;20021;-58
2023/09/04 01:40:23;;;;;;;0.00;0.00;;;;;;;19.90;47.35;101820.38;7361745;19;20007;-57
2023/09/04 01:42:49;;;;;;;0.05;0.05;;;;;;;19.85;47.84;101806.44;7356084;19;20695;-58
2023/09/04 01:45:14;;;;;;;0.00;0.00;;;;;;;19.82;47.91;101809.25;7363148;19;20027;-60
2023/09/04 01:47:39;;;;;;;0.00;0.00;;;;;;;19.79;47.71;101804.06;7360321;19;20023;-60
2023/09/04 01:50:05;;;;;;;0.10;0.10;;;;;;;19.75;47.65;101801.63;7362180;19;20038;-60
2023/09/04 01:52:31;;;;;;;0.00;0.00;;;;;;;19.71;48.02;101803.53;7361244;19;20790;-58
2023/09/04 01:54:56;;;;;;;0.00;0.00;;;;;;;19.67;47.77;101799.31;7362841;19;20002;-60
2023/09/04 01:57:22;;;;;;;0.00;0.00;;;;;;;19.63;48.05;101805.69;7358882;19;20086;-58
2023/09/04 01:59:47;;;;;;;0.05;0.05;;;;;;;19.58;47.02;101807.63;7358617;19;20018;-58
2023/09/04 02:02:12;;;;;;;0.08;0.08;;;;;;;19.55;47.74;101821.00;7362509;19;20014;-60
2023/09/04 02:04:38;;;;;;;0.10;0.10;;;;;;;19.49;47.58;101821.25;7361669;19;20006;-59
2023/09/04 02:07:03;;;;;;;0.10;0.10;;;;;;;19.41;47.61;101817.16;7367661;19;20011;-59
2023/09/04 02:09:29;;;;;;;0.10;0.10;;;;;;;19.36;47.91;101819.13;7367518;19;20034;-60
2023/09/04 02:11:54;;;;;;;0.10;0.10;;;;;;;19.28;47.79;101815.06;7358996;19;20621;-60
2023/09/04 02:14:20;;;;;;;0.10;0.10;;;;;;;19.22;48.55;101816.19;7364902;19;20006;-60
2023/09/04 02:16:45;;;;;;;0.10;0.10;;;;;;;19.16;48.61;101816.44;7361755;19;21152;-59
2023/09/04 02:19:10;;;;;;;0.10;0.10;;;;;;;19.11;48.86;101828.97;7365835;19;20010;-56
2023/09/04 02:21:36;;;;;;;0.00;0.00;;;;;;;19.05;49.01;101830.09;7361448;19;20014;-58
2023/09/04 02:24:01;;;;;;;0.00;0.00;;;;;;;19.01;49.52;101828.50;7364794;19;20740;-60
2023/09/04 02:26:27;;;;;;;0.00;0.00;;;;;;;18.99;49.09;101824.19;7357740;19;20018;-58
2023/09/04 02:28:52;;;;;;;0.10;0.10;;;;;;;18.92;49.04;101823.56;7363662;19;20297;-59
2023/09/04 02:31:18;;;;;;;0.00;0.00;;;;;;;18.88;49.14;101814.88;7362633;19;20018;-60
2023/09/04 02:33:44;;;;;;;0.00;0.00;;;;;;;18.85;49.65;101817.63;7371735;19;20031;-58
2023/09/04 02:36:10;;;;;;;0.00;0.00;;;;;;;18.82;49.39;101817.78;7369804;19;20042;-60
2023/09/04 02:38:35;;;;;;;0.00;0.00;;;;;;;18.75;49.30;101807.47;7369485;19;20033;-58
2023/09/04 02:41:00;;;;;;;0.10;0.10;;;;;;;18.74;50.11;101809.25;7376829;19;20503;-60
2023/09/04 02:43:26;;;;;;;0.10;0.10;;;;;;;18.71;50.47;101800.59;7372154;19;20006;-59
2023/09/04 02:45:52;;;;;;;0.05;0.05;;;;;;;18.68;50.42;101798.94;7371092;19;20011;-60
2023/09/04 02:48:17;;;;;;;0.00;0.00;;;;;;;18.64;50.13;101781.41;7375356;19;20038;-59
2023/09/04 02:50:43;;;;;;;0.00;0.00;;;;;;;18.60;50.21;101775.41;7370319;19;20430;-59
2023/09/04 02:53:08;;;;;;;0.00;0.00;;;;;;;18.58;49.89;101782.50;7371580;19;20021;-59
2023/09/04 02:55:34;;;;;;;0.10;0.10;;;;;;;18.55;50.29;101789.69;7371230;19;20021;-59
2023/09/04 02:57:59;;;;;;;0.00;0.00;;;;;;;18.53;50.14;101791.56;7370435;19;20014;-60
2023/09/04 03:00:25;;;;;;;0.00;0.00;;;;;;;18.49;50.05;101793.44;7367122;19;20006;-58
2023/09/04 03:02:50;;;;;;;0.00;0.00;;;;;;;18.47;49.72;101805.03;7365904;19;20014;-58
2023/09/04 03:05:17;;;;;;;0.10;0.10;;;;;;;18.44;50.04;101805.13;7366769;19;20018;-58
2023/09/04 03:07:43;;;;;;;0.00;0.00;;;;;;;18.41;49.92;101803.47;7371286;19;20007;-58
2023/09/04 03:10:08;;;;;;;0.10;0.10;;;;;;;18.37;49.95;101815.94;7371971;19;20010;-58
2023/09/04 03:12:34;;;;;;;0.00;0.00;;;;;;;18.32;49.69;101798.53;7367896;19;20010;-60
2023/09/04 03:15:05;;;;;;;0.00;0.00;;;;;;;18.32;49.54;101809.97;7372048;19;20014;-56
2023/09/04 03:17:32;;;;;;;0.00;0.00;;;;;;;18.30;49.58;101803.03;7365768;19;20006;-59
2023/09/04 03:19:58;;;;;;;0.08;0.08;;;;;;;18.28;50.00;101804.84;7353061;19;20049;-61
2023/09/04 03:22:25;;;;;;;0.00;0.00;;;;;;;18.25;49.83;101803.19;7375886;19;20049;-59
2023/09/04 03:24:51;;;;;;;0.10;0.10;;;;;;;18.24;50.52;101797.94;7370485;19;20015;-58
2023/09/04 03:27:17;;;;;;;0.00;0.00;;;;;;;18.22;50.65;101790.06;7371419;19;20572;-59
2023/09/04 03:29:43;;;;;;;0.00;0.00;;;;;;;18.21;50.72;101796.28;7370169;19;20108;-58
2023/09/04 03:32:08;;;;;;;0.10;0.10;;;;;;;18.21;51.02;101798.94;7368480;19;20011;-57
2023/09/04 03:34:34;;;;;;;0.10;0.10;;;;;;;18.20;50.95;101794.56;7366862;19;20010;-58
2023/09/04 03:36:59;;;;;;;0.10;0.10;;;;;;;18.16;51.65;101785.00;7370529;19;20006;-60
2023/09/04 03:39:25;;;;;;;0.00;0.00;;;;;;;18.21;51.73;101784.84;7366511;19;20049;-59
2023/09/04 03:41:51;;;;;;;0.10;0.10;;;;;;;18.21;51.87;101780.41;7373679;19;20518;-58
2023/09/04 03:44:17;;;;;;;0.00;0.00;;;;;;;18.21;52.17;101785.72;7376285;19;20010;-59
2023/09/04 03:46:43;;;;;;;0.00;0.00;;;;;;;18.20;51.80;101786.63;7369128;19;20108;-61
2023/09/04 03:49:08;;;;;;;0.00;0.00;;;;;;;18.19;51.94;101782.25;7369219;19;20021;-56
2023/09/04 03:51:34;;;;;;;0.00;0.00;;;;;;;18.08;52.00;101760.63;7367520;19;20011;-60
2023/09/04 03:54:03;;;;;;;0.00;0.00;;;;;;;18.14;51.67;101765.69;7367301;19;20011;-60
2023/09/04 03:56:29;;;;;;;0.03;0.03;;;;;;;18.16;52.18;101763.88;7373507;19;20025;-59
2023/09/04 03:58:55;;;;;;;0.10;0.10;;;;;;;18.14;51.65;101765.69;7369240;19;20102;-58
2023/09/04 04:01:22;;;;;;;0.10;0.10;;;;;;;18.09;51.62;101759.72;7369444;19;20022;-57
2023/09/04 04:03:48;;;;;;;0.00;0.00;;;;;;;18.09;51.70;101759.72;7366863;19;20086;-60
2023/09/04 04:06:14;;;;;;;0.10;0.10;;;;;;;18.07;51.76;101759.78;7370323;19;20089;-58
2023/09/04 04:08:39;;;;;;;0.00;0.00;;;;;;;17.94;51.87;101739.13;7361952;19;20010;-60
2023/09/04 04:11:05;;;;;;;0.00;0.00;;;;;;;18.02;51.37;101751.16;7374757;19;20018;-60
2023/09/04 04:13:31;;;;;;;0.00;0.00;;;;;;;18.00;51.83;101746.84;7372260;19;20510;-60
2023/09/04 04:15:58;;;;;;;0.05;0.05;;;;;;;17.96;51.36;101751.38;7366105;19;20014;-56
2023/09/04 04:18:23;;;;;;;0.10;0.10;;;;;;;17.93;51.70;101747.97;7370720;19;20033;-59
2023/09/04 04:20:48;;;;;;;0.00;0.00;;;;;;;17.91;51.37;101744.56;7365623;19;20011;-59
2023/09/04 04:23:14;;;;;;;0.10;0.10;;;;;;;17.87;51.25;101743.78;7368950;19;20003;-59
2023/09/04 04:25:41;;;;;;;0.10;0.10;;;;;;;17.84;51.19;101743.88;7365570;19;20617;-59
2023/09/04 04:28:06;;;;;;;0.10;0.10;;;;;;;17.81;51.74;101742.22;7367767;19;20014;-58
2023/09/04 04:30:34;;;;;;;0.10;0.10;;;;;;;17.73;51.58;101733.72;7369722;19;20037;-60
2023/09/04 04:32:59;;;;;;;0.00;0.00;;;;;;;17.74;51.22;101740.75;7369351;19;20018;-59
2023/09/04 04:35:24;;;;;;;0.00;0.00;;;;;;;17.72;51.23;101734.59;7364390;19;20371;-59
2023/09/04 04:37:50;;;;;;;0.00;0.00;;;;;;;17.69;51.33;101734.72;7368641;19;20014;-59
2023/09/04 04:40:20;;;;;;;0.00;0.00;;;;;;;17.64;50.64;101737.53;7366310;19;20026;-58
2023/09/04 04:42:45;;;;;;;0.10;0.10;;;;;;;17.62;51.06;101741.13;7363192;19;21041;-59
2023/09/04 04:45:10;;;;;;;0.03;0.03;;;;;;;17.58;51.28;101740.38;7368794;19;20033;-57
2023/09/04 04:47:36;;;;;;;0.05;0.05;;;;;;;17.54;50.90;101732.63;7368213;19;20002;-58
2023/09/04 04:50:02;;;;;;;0.10;0.10;;;;;;;17.51;51.15;101725.66;7354143;19;20045;-60
2023/09/04 04:52:27;;;;;;;0.05;0.05;;;;;;;17.48;51.09;101716.97;7366038;19;20006;-59
2023/09/04 04:54:53;;;;;;;0.08;0.08;;;;;;;17.46;50.60;101718.81;7366373;19;20505;-60
2023/09/04 04:57:18;;;;;;;0.00;0.00;;;;;;;17.41;50.46;101726.03;7364517;19;20018;-58
2023/09/04 04:59:45;;;;;;;0.00;0.00;;;;;;;17.36;51.00;101716.50;7365164;19;20007;-59
2023/09/04 05:02:10;;;;;;;0.10;0.10;;;;;;;17.34;50.79;101717.47;7364140;19;20046;-59
2023/09/04 05:04:35;;;;;;;0.10;0.10;;;;;;;17.28;51.06;101710.59;7360942;19;20006;-59
2023/09/04 05:07:02;;;;;;;0.00;0.00;;;;;;;17.22;50.73;101710.81;7367649;19;20410;-59
2023/09/04 05:09:27;;;;;;;0.00;0.00;;;;;;;17.14;50.85;101701.47;7370059;19;20025;-59
2023/09/04 05:11:52;;;;;;;0.00;0.00;;;;;;;17.18;50.73;101725.03;7365426;19;20015;-60
2023/09/04 05:14:18;;;;;;;0.00;0.00;;;;;;;17.16;51.27;101721.59;7367601;19;20010;-58
2023/09/04 05:16:43;;;;;;;0.10;0.10;;;;;;;17.12;51.22;101725.25;7372025;19;20011;-59
2023/09/04 05:19:09;;;;;;;0.00;0.00;;;;;;;17.08;51.17;101727.16;7366927;19;20010;-59
2023/09/04 05:21:34;;;;;;;0.10;0.10;;;;;;;17.06;51.55;101736.88;7365531;19;20327;-59
2023/09/04 05:23:59;;;;;;;0.08;0.08;;;;;;;17.04;51.33;101727.31;7366280;19;20009;-59
2023/09/04 05:26:25;;;;;;;0.00;0.00;;;;;;;17.02;51.41;101729.09;7364882;19;20098;-60
2023/09/04 05:28:50;;;;;;;0.00;0.00;;;;;;;16.99;51.29;101734.50;7365194;19;20044;-58
2023/09/04 05:31:16;;;;;;;0.00;0.00;;;;;;;16.97;51.60;101728.41;7365378;19;20018;-59
2023/09/04 05:33:41;;;;;;;0.10;0.10;;;;;;;16.93;51.35;101719.75;7366514;19;20033;-60
2023/09/04 05:36:09;;;;;;;0.10;0.10;;;;;;;16.91;51.53;101728.59;7363856;19;20037;-60
2023/09/04 05:38:35;;;;;;;0.10;0.10;;;;;;;16.83;51.45;101727.09;7367669;19;20022;-60
2023/09/04 05:41:00;;;;;;;0.00;0.00;;;;;;;16.85;51.52;101727.03;7357673;19;20028;-60
2023/09/04 05:43:26;;;;;;;0.00;0.00;;;;;;;16.81;51.72;101736.81;7365764;19;20006;-59
2023/09/04 05:45:52;;;;;;;0.10;0.10;;;;;;;16.78;51.55;101734.28;7349342;19;20486;-59
2023/09/04 05:48:17;;;;;;;0.10;0.10;;;;;;;16.76;51.69;101729.97;7366265;19;20018;-59
2023/09/04 05:50:43;;;;;;;0.00;0.00;;;;;;;16.74;51.47;101735.28;7365611;19;20028;-60
2023/09/04 05:53:08;;;;;;;0.00;0.00;;;;;;;16.71;51.82;101735.38;7364193;19;20017;-60
2023/09/04 05:55:35;;;;;;;0.05;0.05;;;;;;;16.65;51.63;101734.69;7361977;19;20007;-58
2023/09/04 05:58:01;;;;;;;0.00;0.00;;;;;;;16.67;52.01;101744.25;7362532;19;20630;-60
2023/09/04 06:00:27;;;;;;;0.10;0.10;;;;;;;16.65;51.71;101730.28;7364234;19;20014;-59
2023/09/04 06:02:54;;;;;;;0.10;0.10;;;;;;;16.62;51.72;101748.81;7363866;19;20024;-56
2023/09/04 06:05:21;;;;;;;0.10;0.10;;;;;;;16.61;51.81;101747.09;7360762;19;20007;-59
2023/09/04 06:07:46;;;;;;;0.00;0.00;;;;;;;16.60;51.80;101748.88;7364782;19;20023;-60
2023/09/04 06:10:12;;;;;;;0.10;0.10;;;;;;;16.59;52.18;101747.16;7363543;19;20003;-59
2023/09/04 06:12:37;;;;;;;0.00;0.00;;;;;;;16.59;52.31;101748.94;7365400;19;20010;-59
2023/09/04 06:15:03;;;;;;;0.10;0.10;;;;;;;16.58;52.04;101742.81;7364034;19;20036;-58
2023/09/04 06:17:28;;;;;;;0.10;0.10;;;;;;;16.54;52.16;101738.53;7365835;19;20018;-59
2023/09/04 06:19:53;;;;;;;0.00;0.00;;;;;;;16.58;52.44;101745.44;7369266;19;20013;-59
2023/09/04 06:22:19;;;;;;;0.10;0.10;;;;;;;16.58;52.75;101752.50;7364134;19;20369;-60
2023/09/04 06:24:44;;;;;;;0.10;0.10;;;;;;;16.59;53.19;101748.94;7361578;19;20030;-57
2023/09/04 06:27:10;;;;;;;0.10;0.10;;;;;;;16.60;52.97;101742.75;7365999;19;20422;-60
2023/09/04 06:29:35;;;;;;;0.00;0.00;;;;;;;16.57;52.80;101738.44;7358794;19;20021;-60
2023/09/04 06:32:00;;;;;;;0.10;0.10;;;;;;;16.61;52.47;101741.81;7363573;19;20473;-60
2023/09/04 06:34:26;;;;;;;0.10;0.10;;;;;;;16.63;52.85;101732.09;7365836;19;20321;-60
2023/09/04 06:36:51;;;;;;;0.10;0.10;;;;;;;16.63;53.36;101725.97;7362582;19;20728;-60
2023/09/04 06:39:17;;;;;;;0.00;0.00;;;;;;;16.64;52.60;101731.19;7364131;19;20006;-60
2023/09/04 06:41:42;;;;;;;0.05;0.05;;;;;;;16.66;53.34;101721.44;7361937;19;20014;-59
2023/09/04 06:44:08;;;;;;;0.10;0.10;;;;;;;16.66;52.94;101726.72;7362835;19;20003;-59
2023/09/04 06:46:33;;;;;;;0.00;0.00;;;;;;;16.69;52.70;101720.50;7355809;19;20011;-58
2023/09/04 06:48:58;;;;;;;0.10;0.10;;;;;;;16.70;53.04;101719.59;7365144;19;20024;-58
2023/09/04 06:51:24;;;;;;;0.10;0.10;;;;;;;16.72;53.49;101721.28;7362431;19;20038;-60
2023/09/04 06:53:49;;;;;;;0.00;0.00;;;;;;;16.74;52.72;101716.84;7360464;19;20506;-59
2023/09/04 06:56:15;;;;;;;0.10;0.10;;;;;;;16.77;52.69;101716.72;7356980;19;20025;-59
2023/09/04 06:58:40;;;;;;;0.10;0.10;;;;;;;16.79;52.76;101712.28;7364508;19;20011;-57
2023/09/04 07:01:06;;;;;;;0.10;0.10;;;;;;;16.79;53.09;101707.00;7357110;19;20046;-60
2023/09/04 07:03:31;;;;;;;0.10;0.10;;;;;;;16.79;53.09;101696.44;7360882;19;20082;-60
2023/09/04 07:05:57;;;;;;;0.00;0.00;;;;;;;16.79;52.84;101685.88;7362368;19;20488;-59
2023/09/04 07:08:22;;;;;;;0.10;0.10;;;;;;;16.88;52.66;101694.41;7364752;19;20014;-60
2023/09/04 07:10:48;;;;;;;0.10;0.10;;;;;;;16.97;53.04;101700.22;7361203;19;20390;-59
2023/09/04 07:13:14;;;;;;;0.00;0.00;;;;;;;16.93;52.98;101688.09;7363282;19;20011;-60
2023/09/04 07:15:44;;;;;;;0.10;0.10;;;;;;;16.99;52.85;101692.28;7359420;19;20006;-59
2023/09/04 07:18:09;;;;;;;0.10;0.10;;;;;;;16.66;52.80;101629.13;7367357;19;20454;-58
2023/09/04 07:20:35;;;;;;;0.10;0.10;;;;;;;17.13;52.71;101705.84;7365281;19;20006;-59
2023/09/04 07:23:00;;;;;;;0.10;0.10;;;;;;;17.18;52.78;101709.19;7368857;19;20026;-58
2023/09/04 07:25:26;;;;;;;0.00;0.00;;;;;;;17.23;52.98;101707.25;7369773;19;20011;-58
2023/09/04 07:27:51;;;;;;;0.00;0.00;;;;;;;17.30;53.04;101707.94;7365135;19;20026;-58
2023/09/04 07:30:17;;;;;;;0.10;0.10;;;;;;;17.36;52.52;101707.72;7368041;19;19999;-58
2023/09/04 07:32:42;;;;;;;0.10;0.10;;;;;;;17.43;52.37;101711.00;7369475;19;20030;-59
2023/09/04 07:35:08;;;;;;;0.10;0.10;;;;;;;17.38;52.55;101693.53;7367719;19;20800;-60
2023/09/04 07:37:34;;;;;;;0.10;0.10;;;;;;;17.57;52.33;101711.38;7370047;19;20011;-61
2023/09/04 07:40:00;;;;;;;0.10;0.10;;;;;;;17.64;52.43;101715.53;7371652;19;20025;-59
2023/09/04 07:42:25;;;;;;;0.10;0.10;;;;;;;17.73;51.56;101707.28;7370946;19;20018;-60
2023/09/04 07:44:50;;;;;;;0.10;0.10;;;;;;;17.78;51.63;101697.41;7365139;19;20541;-59
2023/09/04 07:47:16;;;;;;;0.10;0.10;;;;;;;17.89;51.94;101697.03;7366998;19;20018;-59
2023/09/04 07:49:42;;;;;;;0.10;0.10;;;;;;;17.97;51.67;101694.09;7368636;19;20016;-60
2023/09/04 07:52:07;;;;;;;0.10;0.10;;;;;;;17.92;51.35;101669.63;7369039;19;20015;-60
2023/09/04 07:54:33;;;;;;;0.10;0.10;;;;;;;18.14;51.74;101696.94;7367494;19;20010;-60
2023/09/04 07:57:01;;;;;;;0.05;0.05;;;;;;;18.21;51.89;101702.88;7369601;19;20048;-60
2023/09/04 07:59:27;;;;;;;0.10;0.10;;;;;;;18.27;51.22;101702.66;7365593;19;20017;-59
2023/09/04 08:01:52;;;;;;;0.00;0.00;;;;;;;18.32;51.30;101706.84;7367364;19;20495;-60
2023/09/04 08:04:17;;;;;;;0.10;0.10;;;;;;;18.40;51.15;101709.19;7369168;19;20010;-60
2023/09/04 08:06:43;;;;;;;0.10;0.10;;;;;;;18.46;51.74;101708.94;7370904;19;20014;-60
2023/09/04 08:09:08;;;;;;;0.10;0.10;;;;;;;18.53;51.87;101709.56;7369501;19;20006;-59
2023/09/04 08:11:37;;;;;;;0.10;0.10;;;;;;;18.62;51.59;101693.31;7366463;19;20525;-60
2023/09/04 08:14:02;;;;;;;0.10;0.10;;;;;;;18.65;51.56;101691.41;7367596;19;20078;-59
2023/09/04 08:16:28;;;;;;;0.00;0.00;;;;;;;18.70;52.05;101691.25;7367901;19;20720;-60
2023/09/04 08:18:53;;;;;;;0.05;0.05;;;;;;;18.77;51.84;101684.78;7363313;19;20002;-59
2023/09/04 08:21:19;;;;;;;0.10;0.10;;;;;;;18.83;51.84;101679.22;7369059;19;20015;-60
2023/09/04 08:23:44;;;;;;;0.00;0.00;;;;;;;18.82;52.06;101682.81;7366486;19;20367;-60
2023/09/04 08:26:13;;;;;;;0.10;0.10;;;;;;;18.99;52.50;101697.97;7367436;19;20513;-59
2023/09/04 08:28:39;;;;;;;0.10;0.10;;;;;;;19.03;52.94;101688.13;7363073;19;20011;-58
2023/09/04 08:31:05;;;;;;;0.10;0.10;;;;;;;19.09;52.51;101677.28;7367851;19;20486;-59
2023/09/04 08:33:30;;;;;;;0.08;0.08;;;;;;;19.17;52.28;101685.75;7366815;19;20066;-58
2023/09/04 08:35:56;;;;;;;0.10;0.10;;;;;;;19.28;54.64;101688.81;7363706;19;20010;-60
2023/09/04 08:38:21;;;;;;;0.10;0.10;;;;;;;19.44;54.67;101681.91;7365867;19;20014;-60
2023/09/04 08:40:46;;;;;;;0.00;0.00;;;;;;;19.61;54.15;101685.63;7366505;19;20865;-60
2023/09/04 08:43:14;;;;;;;0.10;0.10;;;;;;;19.81;53.82;101687.38;7368482;19;20027;-59
2023/09/04 08:45:41;;;;;;;0.10;0.10;;;;;;;20.01;53.48;101673.19;7365273;19;20010;-61
2023/09/04 08:48:08;;;;;;;0.10;0.10;;;;;;;20.18;53.56;101668.84;7368822;19;20010;-59
2023/09/04 08:50:35;;;;;;;0.10;0.10;;;;;;;20.46;54.01;101673.69;7367992;19;20018;-59
2023/09/04 08:53:01;;;;;;;0.10;0.10;;;;;;;20.68;53.89;101672.63;7369217;19;20006;-59
2023/09/04 08:55:26;;;;;;;0.10;0.10;;;;;;;20.90;53.83;101669.78;7334464;19;20022;-61
2023/09/04 08:57:53;;;;;;;0.10;0.10;;;;;;;21.15;53.51;101680.03;7360016;19;20018;-61
2023/09/04 09:00:19;;;;;;;0.10;0.10;;;;;;;21.41;53.02;101674.25;7338043;19;20519;-60
2023/09/04 09:02:45;;;;;;;0.00;0.00;;;;;;;21.70;53.39;101682.47;7362922;19;20109;-59
2023/09/04 09:05:17;;;;;;;0.10;0.10;;;;;;;22.03;52.81;101674.44;7364481;19;20015;-60
2023/09/04 09:07:44;;;;;;;0.00;0.00;;;;;;;22.22;52.51;101663.69;7366152;19;20474;-60
2023/09/04 09:10:16;;;;;;;0.20;0.20;;;;;;;22.59;52.19;101664.25;7358583;19;20007;-61
2023/09/04 09:12:42;;;;;;;0.10;0.10;;;;;;;22.81;51.88;101670.06;7367558;19;20022;-59
2023/09/04 09:15:07;;;;;;;0.08;0.08;;;;;;;23.11;52.08;101674.53;7365130;19;20010;-60
2023/09/04 09:17:33;;;;;;;0.08;0.08;;;;;;;23.40;51.93;101660.28;7375802;19;20025;-60
2023/09/04 09:19:58;;;;;;;0.10;0.10;;;;;;;23.70;51.60;101664.72;7373304;19;20402;-61
2023/09/04 09:22:24;;;;;;;0.10;0.10;;;;;;;24.00;51.49;101661.94;7376128;19;20045;-59
2023/09/04 09:24:53;;;;;;;0.10;0.10;;;;;;;24.40;51.32;101668.25;7368851;19;20010;-59
2023/09/04 09:27:23;;;;;;;0.10;0.10;;;;;;;24.72;51.29;101660.75;7365354;19;20018;-58
2023/09/04 09:29:50;;;;;;;0.05;0.05;;;;;;;24.95;51.09;101653.03;7364036;19;20010;-59
2023/09/04 09:32:17;;;;;;;0.00;0.00;;;;;;;25.27;50.63;101658.88;7368744;19;20019;-58
2023/09/04 09:34:48;;;;;;;0.10;0.10;;;;;;;25.70;50.45;101659.38;7364405;19;20006;-60
2023/09/04 09:37:13;;;;;;;0.10;0.10;;;;;;;25.92;49.88;101660.56;7365437;19;20010;-60
2023/09/04 09:39:39;;;;;;;0.10;0.10;;;;;;;26.22;49.10;101662.81;7365527;19;20766;-60
2023/09/04 09:42:05;;;;;;;0.10;0.10;;;;;;;26.42;49.03;101642.59;7367106;19;20086;-60
2023/09/04 09:44:33;;;;;;;0.03;0.03;;;;;;;26.75;48.31;101640.06;7363294;19;20010;-60
2023/09/04 09:46:59;;;;;;;0.10;0.10;;;;;;;27.15;48.29;101656.66;7367751;19;20017;-59
2023/09/04 09:49:25;;;;;;;0.00;0.00;;;;;;;27.50;46.40;101669.16;7375320;19;20002;-61
2023/09/04 09:51:56;;;;;;;0.10;0.10;;;;;;;27.91;47.09;101659.66;7369442;19;20014;-60
2023/09/04 09:54:42;;;;;;;0.00;0.00;;;;;;;28.27;46.71;101655.78;7365256;19;20010;-60
2023/09/04 09:57:09;;;;;;;0.00;0.00;;;;;;;28.45;45.70;101653.47;7367404;19;20010;-60
2023/09/04 09:59:36;;;;;;;0.00;0.00;;;;;;;28.60;46.16;101625.31;7363794;19;20011;-60
2023/09/04 10:02:03;;;;;;;0.00;0.00;;;;;;;29.03;45.18;101645.03;7365608;19;20917;-60
2023/09/04 10:04:31;;;;;;;0.00;0.00;;;;;;;29.33;44.30;101646.91;7361551;19;20550;-61
2023/09/04 10:06:59;;;;;;;0.10;0.10;;;;;;;29.64;43.40;101648.63;7363957;19;20010;-61
2023/09/04 10:09:27;;;;;;;0.00;0.00;;;;;;;29.90;43.32;101654.38;7365112;19;20110;-59
2023/09/04 10:12:31;;;;;;;0.03;0.03;;;;;;;30.30;43.92;101641.88;7366057;19;20026;-59
2023/09/04 10:14:59;;;;;;;0.10;0.10;;;;;;;30.45;41.14;101637.78;7364702;19;20014;-61
2023/09/04 10:17:40;;;;;;;0.10;0.10;;;;;;;30.81;42.56;101619.19;7361875;19;20018;-58
2023/09/04 10:20:06;;;;;;;0.08;0.08;;;;;;;30.89;41.50;101622.03;7363482;19;20015;-58
2023/09/04 10:22:38;;;;;;;0.00;0.00;;;;;;;31.21;41.04;101616.25;7369701;19;20058;-60
2023/09/04 10:25:09;;;;;;;0.00;0.00;;;;;;;31.29;39.32;101619.13;7366264;19;20526;-61
2023/09/04 10:27:41;;;;;;;0.00;0.00;;;;;;;31.54;40.84;101600.53;7361969;19;20015;-60
2023/09/04 10:30:09;;;;;;;0.10;0.10;;;;;;;31.77;40.05;101613.47;7371704;19;20012;-60
2023/09/04 10:32:35;;;;;;;0.10;0.10;;;;;;;32.00;40.53;101618.50;7362336;19;20481;-60
2023/09/04 10:35:05;;;;;;;0.00;0.00;;;;;;;32.25;39.81;101617.75;7365304;19;20014;-60
2023/09/04 10:37:31;;;;;;;0.10;0.10;;;;;;;32.52;40.13;101616.00;7364043;19;20018;-61
2023/09/04 10:39:58;;;;;;;0.00;0.00;;;;;;;32.83;39.31;101611.00;7365567;19;20010;-60
2023/09/04 10:42:27;;;;;;;0.10;0.10;;;;;;;33.04;39.50;101607.94;7361508;19;20046;-60
2023/09/04 10:44:53;;;;;;;0.10;0.10;;;;;;;33.36;37.94;101606.44;7365130;19;20014;-60
2023/09/04 10:47:20;;;;;;;0.10;0.10;;;;;;;33.63;38.43;101598.13;7365393;19;20481;-60
2023/09/04 10:49:47;;;;;;;0.10;0.10;;;;;;;33.93;37.34;101599.41;7365653;19;20011;-60
2023/09/04 10:52:13;;;;;;;0.10;0.10;;;;;;;34.19;37.31;101588.47;7370262;19;20014;-61
2023/09/04 10:54:40;;;;;;;;;;;;;;;34.76;39.35;101591.19;7368165;19;20875;-60
2023/09/04 10:57:10;;;;;;;0.03;0.03;;;;;;;34.81;37.25;101599.66;7371841;19;19929;-59
2023/09/04 10:59:57;;;;;;;0.10;0.10;;;;;;;35.29;37.37;101584.31;7368758;19;20038;-60
2023/09/04 11:02:32;;;;;;;0.00;0.00;;;;;;;35.55;36.51;101591.34;7369812;19;20018;-61
2023/09/04 11:05:02;;;;;;;0.10;0.10;;;;;;;35.83;36.14;101600.69;7368334;19;20014;-58
2023/09/04 11:07:30;;;;;;;0.10;0.10;;;;;;;36.05;35.44;101599.09;7377066;19;20006;-60
2023/09/04 11:10:11;;;;;;;0.10;0.10;;;;;;;36.48;35.97;101599.47;7373094;19;20054;-61
2023/09/04 11:12:37;;;;;;;0.10;0.10;;;;;;;36.55;34.55;101595.00;7371860;19;20769;-60
2023/09/04 11:15:26;;;;;;;0.10;0.10;;;;;;;37.14;34.73;101594.22;7372891;19;20030;-60
2023/09/04 11:17:51;;;;;;;0.03;0.03;;;;;;;37.16;32.72;101592.19;7372393;19;20034;-60
2023/09/04 11:20:17;;;;;;;0.10;0.10;;;;;;;37.40;32.42;101594.63;7369062;19;20278;-60
2023/09/04 11:22:49;;;;;;;0.08;0.08;;;;;;;37.78;32.61;101602.66;7370344;19;20018;-59
2023/09/04 11:25:15;;;;;;;0.10;0.10;;;;;;;37.91;31.47;101597.34;7372153;19;20017;-60